createdAt,value
2022-12-08T00:01:07.777Z,10.65
2022-12-08T00:03:34.853Z,10.30
2022-12-08T00:06:21.606Z,10.05
2022-12-08T00:09:06.944Z,10.07
2022-12-08T00:11:33.700Z,9.68
2022-12-08T00:14:00.305Z,9.60
2022-12-08T00:16:26.863Z,10.48
2022-12-08T00:18:53.240Z,9.57
2022-12-08T00:21:19.682Z,10.48
2022-12-08T00:23:46.008Z,10.00
2022-12-08T00:26:12.323Z,11.15
2022-12-08T00:28:38.622Z,9.63
2022-12-08T00:31:10.841Z,10.68
2022-12-08T00:33:37.940Z,10.02
2022-12-08T00:36:13.584Z,10.95
2022-12-08T00:38:40.944Z,9.65
2022-12-08T00:41:12.711Z,9.90
2022-12-08T00:43:39.201Z,9.63
2022-12-08T00:46:05.725Z,10.13
2022-12-08T00:48:32.272Z,10.90
2022-12-08T00:50:58.541Z,10.50
2022-12-08T00:53:24.884Z,9.98
2022-12-08T00:55:51.196Z,10.05
2022-12-08T00:58:17.514Z,10.85
2022-12-08T01:00:44.041Z,10.05
2022-12-08T01:03:11.368Z,11.15
2022-12-08T01:09:24.887Z,10.25
2022-12-08T01:11:51.433Z,9.95
2022-12-08T01:14:17.813Z,9.63
2022-12-08T01:16:44.191Z,10.38
2022-12-08T01:19:15.857Z,10.05
2022-12-08T01:21:43.490Z,9.60
2022-12-08T01:24:15.892Z,10.10
2022-12-08T01:26:42.449Z,8.77
2022-12-08T01:29:09.188Z,9.88
2022-12-08T01:31:35.863Z,10.57
2022-12-08T01:34:02.282Z,9.82
2022-12-08T01:36:31.542Z,9.35
2022-12-08T01:39:02.169Z,9.65
2022-12-08T01:41:31.400Z,11.02
2022-12-08T01:44:04.490Z,10.52
2022-12-08T01:46:33.201Z,9.25
2022-12-08T01:49:36.202Z,10.77
2022-12-08T01:52:18.352Z,10.05
2022-12-08T01:55:20.363Z,10.75
2022-12-08T01:57:50.923Z,9.68
2022-12-08T02:00:20.292Z,10.68
2022-12-08T02:03:02.449Z,10.77
2022-12-08T02:05:33.005Z,10.95
2022-12-08T02:08:01.970Z,10.45
2022-12-08T02:10:30.543Z,10.63
2022-12-08T02:12:58.681Z,10.90
2022-12-08T02:15:39.234Z,9.88
2022-12-08T02:18:57.677Z,9.68
2022-12-08T02:22:01.263Z,9.45
2022-12-08T02:24:36.773Z,11.50
2022-12-08T02:30:06.235Z,10.25
2022-12-08T02:33:01.224Z,10.80
2022-12-08T02:35:54.046Z,10.60
2022-12-08T02:38:39.712Z,11.07
2022-12-08T02:41:31.858Z,10.68
2022-12-08T02:44:24.322Z,10.25
2022-12-08T02:46:55.736Z,10.95
2022-12-08T02:49:27.303Z,9.65
2022-12-08T02:52:07.756Z,10.57
2022-12-08T02:54:36.052Z,11.20
2022-12-08T02:57:13.318Z,10.38
2022-12-08T02:59:48.506Z,10.80
2022-12-08T03:02:59.220Z,10.52
2022-12-08T03:05:31.366Z,10.55
2022-12-08T03:08:09.703Z,9.95
2022-12-08T03:10:42.845Z,10.75
2022-12-08T03:13:29.559Z,10.60
2022-12-08T03:15:56.475Z,9.73
2022-12-08T03:18:28.716Z,10.02
2022-12-08T03:20:55.499Z,11.15
2022-12-08T03:23:22.622Z,9.80
2022-12-08T03:25:57.785Z,9.68
2022-12-08T03:28:24.563Z,10.43
2022-12-08T03:30:56.404Z,10.55
2022-12-08T03:33:33.046Z,10.18
2022-12-08T03:36:02.306Z,11.50
2022-12-08T03:38:38.166Z,10.25
2022-12-08T03:41:20.040Z,11.73
2022-12-08T03:43:47.458Z,10.48
2022-12-08T03:46:15.914Z,10.85
2022-12-08T03:48:42.957Z,10.25
2022-12-08T03:51:09.589Z,10.40
2022-12-08T03:53:35.994Z,10.35
2022-12-08T03:56:07.142Z,10.88
2022-12-08T03:58:37.438Z,10.60
2022-12-08T04:01:03.991Z,9.43
2022-12-08T04:03:30.281Z,9.80
2022-12-08T04:05:56.583Z,11.02
2022-12-08T04:08:23.085Z,10.45
2022-12-08T04:10:49.483Z,10.20
2022-12-08T04:13:15.862Z,9.45
2022-12-08T04:15:48.777Z,9.73
2022-12-08T04:18:15.954Z,9.43
2022-12-08T04:20:43.707Z,9.68
2022-12-08T04:23:12.170Z,9.45
2022-12-08T04:25:39.223Z,9.13
2022-12-08T04:28:06.091Z,8.63
2022-12-08T04:30:32.901Z,8.75
2022-12-08T04:32:59.806Z,8.63
2022-12-08T04:35:26.114Z,8.20
2022-12-08T04:37:52.409Z,8.50
2022-12-08T04:40:18.991Z,8.30
2022-12-08T04:42:46.453Z,9.02
2022-12-08T04:45:13.082Z,8.00
2022-12-08T04:47:39.487Z,8.18
2022-12-08T04:50:07.132Z,8.07
2022-12-08T04:52:33.746Z,8.10
2022-12-08T04:55:00.138Z,7.93
2022-12-08T04:57:26.468Z,8.10
2022-12-08T04:59:52.782Z,7.63
2022-12-08T05:02:19.578Z,7.50
2022-12-08T05:04:46.135Z,8.45
2022-12-08T05:07:12.445Z,8.25
2022-12-08T05:09:38.766Z,9.07
2022-12-08T05:12:05.254Z,8.15
2022-12-08T05:14:31.553Z,9.50
2022-12-08T05:16:57.817Z,8.73
2022-12-08T05:19:24.292Z,8.73
2022-12-08T05:21:50.630Z,9.13
2022-12-08T05:24:16.973Z,8.07
2022-12-08T05:26:43.265Z,8.93
2022-12-08T05:29:09.554Z,8.75
2022-12-08T05:31:35.966Z,8.45
2022-12-08T05:34:03.446Z,8.20
2022-12-08T05:36:30.113Z,8.25
2022-12-08T05:38:57.984Z,7.43
2022-12-08T05:41:24.810Z,9.25
2022-12-08T05:43:51.224Z,8.57
2022-12-08T05:46:17.914Z,8.30
2022-12-08T05:48:44.398Z,8.57
2022-12-08T05:51:19.958Z,8.65
2022-12-08T05:56:13.558Z,8.82
2022-12-08T05:58:39.973Z,8.00
2022-12-08T06:01:06.350Z,8.20
2022-12-08T06:03:33.201Z,8.80
2022-12-08T06:05:59.695Z,8.77
2022-12-08T06:08:26.093Z,9.23
2022-12-08T06:10:52.460Z,8.40
2022-12-08T06:13:18.790Z,9.23
2022-12-08T06:15:45.203Z,8.07
2022-12-08T06:18:11.895Z,9.52
2022-12-08T06:20:38.295Z,8.15
2022-12-08T06:23:04.633Z,8.32
2022-12-08T06:25:30.956Z,9.15
2022-12-08T06:27:57.421Z,8.65
2022-12-08T06:30:23.798Z,8.25
2022-12-08T06:32:50.182Z,8.85
2022-12-08T06:35:16.749Z,8.50
2022-12-08T06:37:43.079Z,7.07
2022-12-08T06:40:09.890Z,8.10
2022-12-08T06:42:46.461Z,7.50
2022-12-08T06:45:15.410Z,7.90
2022-12-08T06:47:41.867Z,8.25
2022-12-08T06:50:10.773Z,7.85
2022-12-08T06:52:45.691Z,8.43
2022-12-08T06:55:35.305Z,7.88
2022-12-08T06:58:02.387Z,7.13
2022-12-08T07:00:28.768Z,7.60
2022-12-08T07:02:55.139Z,7.05
2022-12-08T07:05:21.492Z,7.50
2022-12-08T07:07:47.872Z,7.22
2022-12-08T07:10:14.270Z,8.63
2022-12-08T07:12:40.594Z,7.55
2022-12-08T07:15:07.701Z,8.30
2022-12-08T07:17:33.994Z,8.15
2022-12-08T07:20:00.334Z,8.48
2022-12-08T07:22:26.654Z,7.20
2022-12-08T07:24:52.985Z,7.57
2022-12-08T07:27:19.313Z,8.55
2022-12-08T07:29:45.840Z,8.02
2022-12-08T07:32:12.191Z,7.50
2022-12-08T07:34:38.565Z,9.60
2022-12-08T07:37:04.862Z,8.32
2022-12-08T07:39:31.322Z,7.68
2022-12-08T07:41:57.677Z,7.88
2022-12-08T07:44:24.279Z,7.75
2022-12-08T07:46:50.581Z,8.63
2022-12-08T07:49:16.930Z,8.65
2022-12-08T07:51:43.308Z,9.40
2022-12-08T07:54:12.275Z,8.25
2022-12-08T07:56:38.625Z,8.32
2022-12-08T07:59:05.006Z,8.90
2022-12-08T08:01:33.507Z,8.88
2022-12-08T08:06:54.891Z,8.48
2022-12-08T08:09:21.204Z,8.60
2022-12-08T08:12:07.218Z,8.57
2022-12-08T08:14:34.680Z,7.95
2022-12-08T08:17:01.212Z,8.25
2022-12-08T08:19:27.719Z,9.23
2022-12-08T08:21:54.189Z,8.90
2022-12-08T08:24:22.066Z,8.00
2022-12-08T08:26:48.548Z,8.00
2022-12-08T08:29:14.983Z,7.50
2022-12-08T08:31:41.480Z,8.98
2022-12-08T08:34:08.945Z,7.53
2022-12-08T08:36:35.346Z,9.02
2022-12-08T08:39:02.283Z,8.05
2022-12-08T08:41:28.654Z,8.18
2022-12-08T08:43:55.385Z,7.93
2022-12-08T08:46:21.789Z,8.30
2022-12-08T08:48:48.172Z,8.77
2022-12-08T08:51:15.123Z,8.20
2022-12-08T08:53:42.434Z,9.32
2022-12-08T08:56:13.860Z,8.43
2022-12-08T08:58:41.005Z,8.65
2022-12-08T09:01:07.987Z,8.57
2022-12-08T09:03:34.334Z,8.15
2022-12-08T09:06:00.711Z,7.78
2022-12-08T09:08:27.366Z,7.97
2022-12-08T09:10:54.918Z,8.43
2022-12-08T09:13:22.134Z,7.78
2022-12-08T09:15:48.525Z,7.97
2022-12-08T09:18:14.923Z,7.57
2022-12-08T09:20:41.198Z,7.53
2022-12-08T09:23:07.490Z,8.68
2022-12-08T09:25:33.890Z,8.23
2022-12-08T09:28:00.189Z,7.90
2022-12-08T09:30:26.577Z,8.02
2022-12-08T09:32:52.948Z,7.88
2022-12-08T09:35:19.275Z,8.80
2022-12-08T09:37:45.620Z,8.43
2022-12-08T09:40:17.374Z,7.45
2022-12-08T09:43:03.395Z,8.73
2022-12-08T09:48:28.133Z,7.25
2022-12-08T09:50:56.710Z,8.40
2022-12-08T09:53:35.466Z,8.80
2022-12-08T09:56:02.530Z,8.18
2022-12-08T09:58:51.834Z,8.82
2022-12-08T10:01:20.041Z,7.75
2022-12-08T10:03:46.536Z,8.60
2022-12-08T10:06:31.223Z,7.25
2022-12-08T10:09:23.024Z,8.25
2022-12-08T10:12:17.128Z,7.38
2022-12-08T10:14:57.919Z,8.98
2022-12-08T10:17:34.307Z,7.65
2022-12-08T10:20:13.370Z,7.50
2022-12-08T10:22:44.480Z,7.28
2022-12-08T10:25:17.764Z,7.85
2022-12-08T10:27:44.418Z,7.63
2022-12-08T10:30:15.235Z,7.82
2022-12-08T10:32:45.213Z,7.13
2022-12-08T10:35:14.533Z,7.68
2022-12-08T10:37:41.099Z,7.93
2022-12-08T10:40:12.107Z,8.23
2022-12-08T10:42:46.903Z,7.35
2022-12-08T10:45:37.250Z,7.57
2022-12-08T10:48:21.826Z,7.13
2022-12-08T10:50:55.346Z,7.30
2022-12-08T10:53:44.481Z,6.68
2022-12-08T10:56:17.048Z,7.32
2022-12-08T10:58:48.124Z,7.63
2022-12-08T11:01:21.909Z,7.22
2022-12-08T11:03:52.509Z,6.78
2022-12-08T11:06:30.741Z,6.20
2022-12-08T11:09:02.919Z,6.68
2022-12-08T11:11:48.303Z,6.05
2022-12-08T11:14:26.903Z,6.65
2022-12-08T11:17:05.536Z,6.20
2022-12-08T11:19:37.898Z,6.35
2022-12-08T11:22:25.024Z,6.32
2022-12-08T11:25:19.449Z,6.45
2022-12-08T11:27:49.192Z,5.43
2022-12-08T11:30:21.610Z,5.95
2022-12-08T11:33:20.096Z,6.20
2022-12-08T11:36:09.571Z,6.63
2022-12-08T11:38:41.629Z,6.10
2022-12-08T11:41:16.010Z,6.22
2022-12-08T11:43:58.488Z,5.68
2022-12-08T11:46:37.097Z,5.90
2022-12-08T11:49:09.288Z,5.95
2022-12-08T11:51:42.199Z,5.63
2022-12-08T11:54:08.533Z,6.18
2022-12-08T11:56:40.188Z,6.22
2022-12-08T11:59:38.304Z,5.93
2022-12-08T12:02:06.361Z,5.18
2022-12-08T12:04:47.072Z,4.53
2022-12-08T12:07:32.427Z,3.65
2022-12-08T12:10:20.504Z,2.95
2022-12-08T12:12:52.901Z,2.30
2022-12-08T12:15:52.934Z,2.38
2022-12-08T12:18:31.454Z,2.10
2022-12-08T12:21:21.534Z,2.90
2022-12-08T12:24:00.147Z,2.78
2022-12-08T12:26:31.824Z,2.55
2022-12-08T12:29:15.935Z,2.47
2022-12-08T12:31:47.180Z,2.92
2022-12-08T12:34:43.563Z,2.60
2022-12-08T12:40:07.471Z,2.40
2022-12-08T12:43:03.581Z,2.58
2022-12-08T12:45:34.273Z,2.70
2022-12-08T12:48:00.530Z,1.95
2022-12-08T12:50:32.980Z,2.47
2022-12-08T12:53:01.175Z,2.55
2022-12-08T12:55:47.172Z,2.20
2022-12-08T13:00:45.944Z,2.85
2022-12-08T13:03:17.221Z,2.30
2022-12-08T13:05:53.294Z,2.50
2022-12-08T13:08:23.176Z,2.50
2022-12-08T13:11:10.291Z,2.40
2022-12-08T13:13:38.501Z,2.92
2022-12-08T13:16:18.498Z,2.33
2022-12-08T13:18:51.229Z,2.63
2022-12-08T13:21:22.721Z,2.60
2022-12-08T13:24:13.900Z,2.47
2022-12-08T13:27:10.677Z,2.70
2022-12-08T13:29:40.363Z,2.63
2022-12-08T13:32:09.634Z,2.38
2022-12-08T13:34:49.200Z,2.55
2022-12-08T13:37:28.875Z,2.65
2022-12-08T13:39:59.128Z,2.72
2022-12-08T13:42:44.223Z,2.70
2022-12-08T13:45:59.191Z,2.60
2022-12-08T13:48:30.244Z,2.55
2022-12-08T13:57:10.714Z,2.33
2022-12-08T13:59:43.623Z,2.83
2022-12-08T14:02:34.533Z,3.35
2022-12-08T14:05:34.731Z,3.20
2022-12-08T14:07:51.683Z,2.70
2022-12-08T14:10:21.802Z,3.85
2022-12-08T14:13:02.563Z,3.53
2022-12-08T14:15:37.191Z,3.45
2022-12-08T14:18:05.781Z,8.57
2022-12-08T14:20:51.757Z,10.27
2022-12-08T14:23:20.410Z,19.48
2022-12-08T14:25:48.131Z,21.55
2022-12-08T14:28:14.544Z,8.57
2022-12-08T14:30:41.097Z,7.75
2022-12-08T14:33:14.909Z,7.57
2022-12-08T14:35:41.689Z,8.00
2022-12-08T14:38:16.654Z,10.23
2022-12-08T14:40:44.405Z,7.68
2022-12-08T14:43:10.714Z,6.07
2022-12-08T14:45:42.813Z,6.25
2022-12-08T14:48:19.191Z,4.57
2022-12-08T14:51:03.801Z,2.83
2022-12-08T14:53:37.492Z,8.10
2022-12-08T14:56:31.347Z,8.35
2022-12-08T14:59:17.415Z,4.85
2022-12-08T15:04:19.122Z,2.80
2022-12-08T15:07:02.723Z,3.75
2022-12-08T15:09:38.508Z,3.28
2022-12-08T15:12:24.704Z,2.70
2022-12-08T15:14:57.325Z,4.47
2022-12-08T15:17:48.894Z,8.27
2022-12-08T15:20:35.475Z,6.85
2022-12-08T15:23:02.572Z,8.15
2022-12-08T15:25:29.000Z,6.18
2022-12-08T15:27:56.984Z,6.00
2022-12-08T15:30:26.317Z,6.95
2022-12-08T15:32:54.041Z,6.70
2022-12-08T15:35:20.532Z,6.40
2022-12-08T15:37:46.970Z,6.55
2022-12-08T15:40:19.418Z,7.28
2022-12-08T15:42:45.940Z,7.15
2022-12-08T15:45:14.380Z,7.32
2022-12-08T15:47:42.413Z,7.53
2022-12-08T15:50:20.098Z,7.90
2022-12-08T15:52:46.846Z,7.38
2022-12-08T15:55:14.653Z,6.57
2022-12-08T15:58:44.566Z,7.03
2022-12-08T16:00:53.852Z,7.28
2022-12-08T16:04:19.796Z,7.43
2022-12-08T16:09:21.154Z,6.72
2022-12-08T16:12:08.476Z,7.20
2022-12-08T16:17:23.410Z,6.85
2022-12-08T16:19:49.777Z,7.18
2022-12-08T16:23:03.714Z,7.47
2022-12-08T16:25:20.202Z,7.03
2022-12-08T16:28:03.042Z,8.15
2022-12-08T16:30:32.855Z,7.55
2022-12-08T16:32:59.215Z,8.23
2022-12-08T16:35:25.541Z,7.63
2022-12-08T16:37:51.842Z,8.55
2022-12-08T16:40:18.290Z,10.02
2022-12-08T16:42:45.804Z,8.70
2022-12-08T16:45:29.679Z,8.07
2022-12-08T16:48:00.600Z,8.20
2022-12-08T16:50:31.313Z,7.32
2022-12-08T16:53:03.508Z,7.43
2022-12-08T16:55:29.869Z,8.52
2022-12-08T16:57:56.555Z,9.10
2022-12-08T17:00:25.809Z,8.80
2022-12-08T17:02:53.243Z,8.77
2022-12-08T17:05:22.166Z,8.40
2022-12-08T17:07:50.477Z,8.93
2022-12-08T17:10:19.652Z,9.20
2022-12-08T17:12:46.256Z,9.40
2022-12-08T17:15:16.493Z,9.93
2022-12-08T17:17:43.186Z,9.25
2022-12-08T17:20:14.691Z,8.70
2022-12-08T17:22:41.035Z,9.70
2022-12-08T17:25:08.063Z,8.85
2022-12-08T17:27:34.883Z,8.18
2022-12-08T17:30:01.279Z,9.18
2022-12-08T17:32:27.729Z,9.60
2022-12-08T17:34:54.100Z,9.93
2022-12-08T17:37:20.383Z,7.47
2022-12-08T17:39:46.773Z,8.98
2022-12-08T17:42:13.087Z,9.18
2022-12-08T17:44:39.484Z,9.65
2022-12-08T17:47:05.911Z,9.23
2022-12-08T17:49:35.198Z,8.52
2022-12-08T17:52:04.799Z,9.93
2022-12-08T17:54:31.485Z,8.18
2022-12-08T17:56:58.651Z,9.07
2022-12-08T17:59:26.514Z,9.43
2022-12-08T18:01:54.599Z,8.55
2022-12-08T18:04:21.606Z,7.88
2022-12-08T18:06:48.046Z,7.38
2022-12-08T18:09:14.923Z,8.15
2022-12-08T18:11:42.068Z,7.63
2022-12-08T18:14:10.027Z,7.88
2022-12-08T18:16:38.225Z,7.30
2022-12-08T18:19:05.221Z,6.88
2022-12-08T18:21:31.680Z,6.05
2022-12-08T18:23:58.323Z,6.28
2022-12-08T18:26:27.257Z,7.28
2022-12-08T18:28:53.652Z,7.13
2022-12-08T18:31:21.558Z,6.57
2022-12-08T18:33:49.365Z,7.28
2022-12-08T18:36:20.245Z,7.18
2022-12-08T18:38:46.853Z,6.32
2022-12-08T18:41:16.094Z,6.57
2022-12-08T18:43:42.686Z,5.60
2022-12-08T18:46:12.012Z,5.57
2022-12-08T18:48:41.430Z,5.75
2022-12-08T18:51:12.235Z,6.65
2022-12-08T18:53:39.698Z,5.63
2022-12-08T18:56:07.263Z,6.18
2022-12-08T18:58:34.249Z,6.50
2022-12-08T19:01:00.852Z,6.18
2022-12-08T19:03:27.346Z,7.03
2022-12-08T19:06:06.513Z,6.80
2022-12-08T19:08:32.956Z,6.25
2022-12-08T19:11:00.004Z,6.32
2022-12-08T19:13:27.218Z,7.35
2022-12-08T19:15:54.116Z,6.88
2022-12-08T19:18:20.541Z,7.22
2022-12-08T19:20:47.005Z,7.30
2022-12-08T19:23:14.478Z,8.05
2022-12-08T19:25:41.463Z,8.00
2022-12-08T19:28:07.822Z,12.95
2022-12-08T19:30:34.180Z,10.82
2022-12-08T19:33:00.560Z,13.57
2022-12-08T19:35:26.904Z,9.07
2022-12-08T19:37:54.712Z,9.32
2022-12-08T19:40:39.479Z,10.93
2022-12-08T19:43:33.276Z,9.25
2022-12-08T19:45:59.830Z,7.00
2022-12-08T19:48:26.243Z,5.63
2022-12-08T19:50:52.631Z,7.03
2022-12-08T19:53:19.415Z,6.85
2022-12-08T19:55:46.991Z,6.28
2022-12-08T19:58:13.775Z,6.13
2022-12-08T20:00:40.906Z,6.50
2022-12-08T20:03:07.353Z,7.30
2022-12-08T20:05:36.296Z,5.90
2022-12-08T20:08:02.710Z,5.90
2022-12-08T20:10:33.620Z,6.50
2022-12-08T20:13:27.325Z,6.28
2022-12-08T20:15:53.948Z,6.97
2022-12-08T20:18:20.478Z,5.50
2022-12-08T20:20:47.538Z,6.40
2022-12-08T20:23:15.606Z,6.80
2022-12-08T20:25:44.192Z,7.10
2022-12-08T20:28:10.592Z,6.10
2022-12-08T20:30:41.762Z,5.97
2022-12-08T20:33:08.473Z,5.80
2022-12-08T20:35:34.805Z,5.50
2022-12-08T20:38:01.159Z,5.82
2022-12-08T20:40:27.472Z,5.88
2022-12-08T20:42:53.791Z,6.95
2022-12-08T20:45:20.292Z,7.53
2022-12-08T20:47:46.606Z,8.05
2022-12-08T20:50:13.066Z,6.97
2022-12-08T20:52:39.602Z,6.45
2022-12-08T20:55:07.561Z,6.63
2022-12-08T20:57:34.143Z,6.13
2022-12-08T21:00:00.702Z,5.65
2022-12-08T21:02:27.476Z,6.07
2022-12-08T21:04:54.349Z,6.85
2022-12-08T21:07:20.771Z,7.20
2022-12-08T21:09:47.368Z,6.45
2022-12-08T21:12:13.895Z,6.65
2022-12-08T21:14:40.390Z,6.68
2022-12-08T21:17:07.578Z,6.50
2022-12-08T21:19:34.057Z,6.07
2022-12-08T21:22:00.426Z,6.70
2022-12-08T21:24:33.532Z,6.97
2022-12-08T21:27:00.818Z,6.97
2022-12-08T21:29:27.420Z,7.50
2022-12-08T21:31:56.165Z,6.95
2022-12-08T21:34:22.762Z,6.43
2022-12-08T21:36:49.295Z,7.55
2022-12-08T21:39:15.799Z,7.22
2022-12-08T21:42:00.961Z,7.20
2022-12-08T21:44:27.496Z,7.20
2022-12-08T21:46:53.978Z,8.05
2022-12-08T21:49:20.821Z,8.52
2022-12-08T21:51:47.468Z,7.97
2022-12-08T21:54:18.622Z,9.40
2022-12-08T21:56:45.664Z,9.15
2022-12-08T21:59:12.208Z,9.18
2022-12-08T22:01:39.046Z,8.02
2022-12-08T22:04:05.876Z,8.23
2022-12-08T22:06:32.367Z,8.88
2022-12-08T22:08:58.813Z,8.27
2022-12-08T22:11:25.474Z,8.95
2022-12-08T22:13:52.078Z,8.55
2022-12-08T22:16:18.566Z,8.80
2022-12-08T22:18:45.513Z,8.30
2022-12-08T22:21:17.210Z,8.65
2022-12-08T22:23:44.444Z,8.70
2022-12-08T22:26:11.765Z,9.00
2022-12-08T22:28:41.076Z,8.95
2022-12-08T22:31:13.603Z,9.95
2022-12-08T22:33:40.918Z,9.68
2022-12-08T22:36:13.054Z,9.68
2022-12-08T22:38:40.496Z,10.75
2022-12-08T22:41:07.198Z,11.43
2022-12-08T22:43:34.603Z,9.57
2022-12-08T22:46:01.423Z,10.00
2022-12-08T22:48:28.055Z,9.70
2022-12-08T22:51:01.031Z,8.48
2022-12-08T22:53:27.481Z,8.43
2022-12-08T22:55:54.221Z,8.55
2022-12-08T22:58:20.896Z,8.98
2022-12-08T23:00:47.363Z,8.02
2022-12-08T23:03:13.819Z,8.23
2022-12-08T23:05:40.707Z,9.27
2022-12-08T23:08:08.440Z,9.63
2022-12-08T23:10:35.507Z,10.10
2022-12-08T23:13:04.167Z,9.73
2022-12-08T23:15:31.568Z,10.88
2022-12-08T23:17:58.122Z,10.02
2022-12-08T23:20:24.570Z,9.98
2022-12-08T23:22:51.264Z,8.73
2022-12-08T23:25:18.506Z,9.63
2022-12-08T23:27:46.064Z,9.73
2022-12-08T23:30:13.165Z,10.20
2022-12-08T23:32:39.657Z,9.88
2022-12-08T23:35:07.163Z,9.63
2022-12-08T23:37:33.588Z,9.07
2022-12-08T23:40:00.040Z,9.73
2022-12-08T23:42:28.340Z,9.63
2022-12-08T23:44:54.751Z,10.25
2022-12-08T23:47:21.388Z,8.15
2022-12-08T23:49:47.906Z,9.10
2022-12-08T23:52:14.429Z,8.07
2022-12-08T23:54:41.019Z,9.88
2022-12-08T23:57:07.849Z,9.63
2022-12-08T23:59:34.276Z,9.52
